sensor_id;sensor_type;location;lat;lon;timestamp;pressure;altitude;pressure_sealevel;temperature;humidity
59987;BME280;46181;51.498;5.392;2023-05-11T00:03:40;101319.1;;;17.47;65.66992
59987;BME280;46181;51.498;5.392;2023-05-11T00:08:10;101322.4;;;17.46;65.7373
59987;BME280;46181;51.498;5.392;2023-05-11T00:12:40;101316.8;;;17.47;65.75195
59987;BME280;46181;51.498;5.392;2023-05-11T00:17:10;101317.2;;;17.48;65.70605
59987;BME280;46181;51.498;5.392;2023-05-11T00:21:43;101306;;;17.46;65.7373
59987;BME280;46181;51.498;5.392;2023-05-11T00:26:10;101309;;;17.44;65.75781
59987;BME280;46181;51.498;5.392;2023-05-11T00:30:42;101314.7;;;17.43;65.71094
59987;BME280;46181;51.498;5.392;2023-05-11T00:35:11;101322.7;;;17.37;65.68945
59987;BME280;46181;51.498;5.392;2023-05-11T00:39:40;101323.5;;;17.28;65.68652
59987;BME280;46181;51.498;5.392;2023-05-11T00:44:10;101323.7;;;17.19;65.77734
59987;BME280;46181;51.498;5.392;2023-05-11T00:48:40;101323.8;;;17.14;65.95117
59987;BME280;46181;51.498;5.392;2023-05-11T00:53:10;101328;;;17.13;66.0752
59987;BME280;46181;51.498;5.392;2023-05-11T00:57:41;101325.2;;;17.12;66.18848
59987;BME280;46181;51.498;5.392;2023-05-11T01:02:11;101330;;;17.13;66.18945
59987;BME280;46181;51.498;5.392;2023-05-11T01:06:46;101330.5;;;17.12;66.29102
59987;BME280;46181;51.498;5.392;2023-05-11T01:11:14;101331.9;;;17.18;66.20801
59987;BME280;46181;51.498;5.392;2023-05-11T01:15:43;101333.4;;;17.19;66.13184
59987;BME280;46181;51.498;5.392;2023-05-11T01:20:14;101332.1;;;17.2;66.18848
59987;BME280;46181;51.498;5.392;2023-05-11T01:24:50;101337.1;;;17.19;66.19922
59987;BME280;46181;51.498;5.392;2023-05-11T01:29:46;101336.1;;;17.1;66.49316
59987;BME280;46181;51.498;5.392;2023-05-11T01:33:45;101337.8;;;17.15;66.10156
59987;BME280;46181;51.498;5.392;2023-05-11T01:38:14;101336.4;;;17.08;66.14746
59987;BME280;46181;51.498;5.392;2023-05-11T01:42:48;101339.5;;;17.04;66.19922
59987;BME280;46181;51.498;5.392;2023-05-11T01:47:12;101336.3;;;17.03;66.20898
59987;BME280;46181;51.498;5.392;2023-05-11T01:51:42;101328.4;;;17;66.31738
59987;BME280;46181;51.498;5.392;2023-05-11T01:56:11;101337.3;;;17.01;66.30762
59987;BME280;46181;51.498;5.392;2023-05-11T02:00:41;101340.6;;;16.99;66.31738
59987;BME280;46181;51.498;5.392;2023-05-11T02:05:13;101339.9;;;16.97;66.43945
59987;BME280;46181;51.498;5.392;2023-05-11T02:09:41;101338.1;;;16.95;66.35742
59987;BME280;46181;51.498;5.392;2023-05-11T02:14:11;101332;;;16.94;66.48047
59987;BME280;46181;51.498;5.392;2023-05-11T02:18:40;101326.9;;;16.92;66.39844
59987;BME280;46181;51.498;5.392;2023-05-11T02:23:11;101320.9;;;16.89;66.50684
59987;BME280;46181;51.498;5.392;2023-05-11T02:27:40;101318.7;;;16.86;66.48145
59987;BME280;46181;51.498;5.392;2023-05-11T02:32:15;101324.7;;;16.81;66.5752
59987;BME280;46181;51.498;5.392;2023-05-11T02:36:41;101328.6;;;16.8;66.57227
59987;BME280;46181;51.498;5.392;2023-05-11T02:41:14;101333.1;;;16.78;66.63965
59987;BME280;46181;51.498;5.392;2023-05-11T02:45:42;101331.8;;;16.77;66.7168
59987;BME280;46181;51.498;5.392;2023-05-11T02:50:12;101331.3;;;16.77;66.63672
59987;BME280;46181;51.498;5.392;2023-05-11T02:54:41;101328;;;16.78;66.70703
59987;BME280;46181;51.498;5.392;2023-05-11T02:59:10;101323.7;;;16.76;66.71582
59987;BME280;46181;51.498;5.392;2023-05-11T03:03:40;101327;;;16.73;66.6543
59987;BME280;46181;51.498;5.392;2023-05-11T03:08:10;101333.8;;;16.67;66.66895
59987;BME280;46181;51.498;5.392;2023-05-11T03:12:41;101336.2;;;16.6;66.66992
59987;BME280;46181;51.498;5.392;2023-05-11T03:17:11;101338.1;;;16.5;66.74609
59987;BME280;46181;51.498;5.392;2023-05-11T03:21:41;101344.3;;;16.41;66.86914
59987;BME280;46181;51.498;5.392;2023-05-11T03:26:11;101341.4;;;16.38;67.09082
59987;BME280;46181;51.498;5.392;2023-05-11T03:30:41;101341.9;;;16.38;67.14648
59987;BME280;46181;51.498;5.392;2023-05-11T03:35:11;101344.2;;;16.37;67.1123
59987;BME280;46181;51.498;5.392;2023-05-11T03:39:41;101340.8;;;16.35;67.0752
59987;BME280;46181;51.498;5.392;2023-05-11T03:44:13;101335;;;16.3;67.02148
59987;BME280;46181;51.498;5.392;2023-05-11T03:48:41;101334.4;;;16.24;66.95703
59987;BME280;46181;51.498;5.392;2023-05-11T03:53:11;101331.5;;;16.15;66.9541
59987;BME280;46181;51.498;5.392;2023-05-11T03:57:41;101338.6;;;16.09;66.99023
59987;BME280;46181;51.498;5.392;2023-05-11T04:02:11;101337.4;;;16.07;67.15625
59987;BME280;46181;51.498;5.392;2023-05-11T04:06:40;101333.4;;;16.09;67.17188
59987;BME280;46181;51.498;5.392;2023-05-11T04:11:10;101333.5;;;16.13;67.10938
59987;BME280;46181;51.498;5.392;2023-05-11T04:15:40;101329.7;;;16.18;67.07031
59987;BME280;46181;51.498;5.392;2023-05-11T04:20:11;101331.7;;;16.2;66.97266
59987;BME280;46181;51.498;5.392;2023-05-11T04:24:41;101335.5;;;16.21;66.92676
59987;BME280;46181;51.498;5.392;2023-05-11T04:29:10;101337.6;;;16.24;66.85254
59987;BME280;46181;51.498;5.392;2023-05-11T04:33:40;101335.3;;;16.26;66.80957
59987;BME280;46181;51.498;5.392;2023-05-11T04:38:10;101338.4;;;16.25;66.78613
59987;BME280;46181;51.498;5.392;2023-05-11T04:42:41;101341.1;;;16.23;66.85156
59987;BME280;46181;51.498;5.392;2023-05-11T04:47:11;101344.3;;;16.31;67
59987;BME280;46181;51.498;5.392;2023-05-11T04:51:40;101342.5;;;16.46;66.90918
59987;BME280;46181;51.498;5.392;2023-05-11T04:56:11;101356.1;;;16.64;66.74219
59987;BME280;46181;51.498;5.392;2023-05-11T05:00:41;101356.1;;;16.82;66.59863
59987;BME280;46181;51.498;5.392;2023-05-11T05:05:11;101360.6;;;17.05;66.38281
59987;BME280;46181;51.498;5.392;2023-05-11T05:09:41;101367.1;;;17.18;66.05957
59987;BME280;46181;51.498;5.392;2023-05-11T05:14:10;101369.7;;;17.28;65.92773
59987;BME280;46181;51.498;5.392;2023-05-11T05:18:41;101374.9;;;17.36;65.83691
59987;BME280;46181;51.498;5.392;2023-05-11T05:23:10;101381.1;;;17.43;65.73242
59987;BME280;46181;51.498;5.392;2023-05-11T05:27:41;101383.5;;;17.48;65.78613
59987;BME280;46181;51.498;5.392;2023-05-11T05:32:10;101382.4;;;17.58;65.75488
59987;BME280;46181;51.498;5.392;2023-05-11T05:36:41;101386.5;;;17.69;65.76074
59987;BME280;46181;51.498;5.392;2023-05-11T05:41:11;101383.9;;;17.84;65.65625
59987;BME280;46181;51.498;5.392;2023-05-11T05:45:41;101386.2;;;17.99;65.54199
59987;BME280;46181;51.498;5.392;2023-05-11T05:50:11;101386.9;;;18.12;65.43457
59987;BME280;46181;51.498;5.392;2023-05-11T05:54:41;101389.5;;;18.14;65.26758
59987;BME280;46181;51.498;5.392;2023-05-11T05:59:11;101390.7;;;18.1;65.3291
59987;BME280;46181;51.498;5.392;2023-05-11T06:03:40;101396.2;;;18.13;65.49219
59987;BME280;46181;51.498;5.392;2023-05-11T06:08:11;101397.3;;;18.2;65.46973
59987;BME280;46181;51.498;5.392;2023-05-11T06:12:41;101402.6;;;18.42;65.44434
59987;BME280;46181;51.498;5.392;2023-05-11T06:17:11;101401.8;;;18.59;65.12598
59987;BME280;46181;51.498;5.392;2023-05-11T06:21:41;101407.6;;;18.72;65.00879
59987;BME280;46181;51.498;5.392;2023-05-11T06:26:11;101413.4;;;18.76;64.78516
59987;BME280;46181;51.498;5.392;2023-05-11T06:30:41;101414.6;;;18.74;64.8623
59987;BME280;46181;51.498;5.392;2023-05-11T06:35:11;101412.5;;;18.73;64.84961
59987;BME280;46181;51.498;5.392;2023-05-11T06:39:42;101416.3;;;18.68;64.95605
59987;BME280;46181;51.498;5.392;2023-05-11T06:44:11;101415.1;;;18.62;64.93555
59987;BME280;46181;51.498;5.392;2023-05-11T06:48:41;101420.1;;;18.58;65.11523
59987;BME280;46181;51.498;5.392;2023-05-11T06:53:11;101425;;;18.58;65.20508
59987;BME280;46181;51.498;5.392;2023-05-11T06:57:41;101427.4;;;18.59;65.1377
59987;BME280;46181;51.498;5.392;2023-05-11T07:02:11;101434.4;;;18.64;65.14551
59987;BME280;46181;51.498;5.392;2023-05-11T07:06:41;101432.1;;;18.69;65.03809
59987;BME280;46181;51.498;5.392;2023-05-11T07:11:11;101437.1;;;18.71;64.99609
59987;BME280;46181;51.498;5.392;2023-05-11T07:15:41;101439.8;;;18.66;64.98828
59987;BME280;46181;51.498;5.392;2023-05-11T07:20:11;101440.8;;;18.67;65.03516
59987;BME280;46181;51.498;5.392;2023-05-11T07:24:41;101438.9;;;18.71;65.05371
59987;BME280;46181;51.498;5.392;2023-05-11T07:29:11;101440.2;;;18.77;65.01563
59987;BME280;46181;51.498;5.392;2023-05-11T07:33:41;101440.8;;;18.76;64.81934
59987;BME280;46181;51.498;5.392;2023-05-11T07:38:11;101446.2;;;18.8;64.87012
59987;BME280;46181;51.498;5.392;2023-05-11T07:42:41;101441.9;;;18.85;64.84375
59987;BME280;46181;51.498;5.392;2023-05-11T07:47:11;101443.6;;;18.87;64.70898
59987;BME280;46181;51.498;5.392;2023-05-11T07:51:43;101448.4;;;18.79;64.6748
59987;BME280;46181;51.498;5.392;2023-05-11T07:56:11;101450.7;;;18.77;64.78809
59987;BME280;46181;51.498;5.392;2023-05-11T08:00:41;101453.8;;;18.81;64.83887
59987;BME280;46181;51.498;5.392;2023-05-11T08:05:11;101452.9;;;18.9;64.67969
59987;BME280;46181;51.498;5.392;2023-05-11T08:09:41;101458.6;;;18.97;64.50586
59987;BME280;46181;51.498;5.392;2023-05-11T08:14:11;101461.7;;;19.03;64.44727
59987;BME280;46181;51.498;5.392;2023-05-11T08:18:41;101461.8;;;19.06;64.19824
59987;BME280;46181;51.498;5.392;2023-05-11T08:23:11;101463.5;;;19.04;64.09375
59987;BME280;46181;51.498;5.392;2023-05-11T08:27:41;101462;;;19.15;64.14258
59987;BME280;46181;51.498;5.392;2023-05-11T08:32:11;101460.9;;;19.27;63.9541
59987;BME280;46181;51.498;5.392;2023-05-11T08:36:43;101460.8;;;19.5;63.76855
59987;BME280;46181;51.498;5.392;2023-05-11T08:41:11;101462.6;;;19.61;63.41797
59987;BME280;46181;51.498;5.392;2023-05-11T08:45:41;101460.2;;;19.72;63.19238
59987;BME280;46181;51.498;5.392;2023-05-11T08:50:11;101462.3;;;19.93;63.0957
59987;BME280;46181;51.498;5.392;2023-05-11T08:54:41;101462.9;;;20.13;62.6543
59987;BME280;46181;51.498;5.392;2023-05-11T08:59:11;101464.7;;;20.3;62.43555
59987;BME280;46181;51.498;5.392;2023-05-11T09:03:42;101465.3;;;20.56;62.28809
59987;BME280;46181;51.498;5.392;2023-05-11T09:08:12;101471.9;;;20.82;61.71289
59987;BME280;46181;51.498;5.392;2023-05-11T09:12:41;101474.3;;;20.89;61.44824
59987;BME280;46181;51.498;5.392;2023-05-11T09:17:11;101472.9;;;21.03;61.38477
59987;BME280;46181;51.498;5.392;2023-05-11T09:21:41;101476.3;;;21.37;61.06445
59987;BME280;46181;51.498;5.392;2023-05-11T09:26:16;101477.4;;;21.8;60.43066
59987;BME280;46181;51.498;5.392;2023-05-11T09:30:41;101479.1;;;21.97;59.81836
59987;BME280;46181;51.498;5.392;2023-05-11T09:35:26;101477.2;;;21.95;59.65332
59987;BME280;46181;51.498;5.392;2023-05-11T09:39:42;101474.2;;;22.16;59.45117
59987;BME280;46181;51.498;5.392;2023-05-11T09:44:18;101481.8;;;22.19;58.85352
59987;BME280;46181;51.498;5.392;2023-05-11T09:48:41;101478.3;;;22.13;58.72949
59987;BME280;46181;51.498;5.392;2023-05-11T09:53:11;101480.4;;;22.08;58.46973
59987;BME280;46181;51.498;5.392;2023-05-11T09:57:41;101484.6;;;21.96;58.14258
59987;BME280;46181;51.498;5.392;2023-05-11T10:02:23;101484;;;21.74;58.34473
59987;BME280;46181;51.498;5.392;2023-05-11T10:06:51;101479;;;21.69;58.62695
59987;BME280;46181;51.498;5.392;2023-05-11T10:11:12;101481.4;;;21.8;58.00488
59987;BME280;46181;51.498;5.392;2023-05-11T10:15:42;101481.1;;;21.84;57.70996
59987;BME280;46181;51.498;5.392;2023-05-11T10:20:12;101480.5;;;22;57.39648
59987;BME280;46181;51.498;5.392;2023-05-11T10:24:42;101481.1;;;22.17;57.37207
59987;BME280;46181;51.498;5.392;2023-05-11T10:29:11;101485.3;;;22.5;57.33203
59987;BME280;46181;51.498;5.392;2023-05-11T10:33:42;101478.8;;;22.9;56.85059
59987;BME280;46181;51.498;5.392;2023-05-11T10:38:11;101474.7;;;23.12;56.64844
59987;BME280;46181;51.498;5.392;2023-05-11T10:42:54;101479.3;;;22.98;56.29395
59987;BME280;46181;51.498;5.392;2023-05-11T10:47:25;101481.9;;;22.83;56.49609
59987;BME280;46181;51.498;5.392;2023-05-11T10:56:22;101468.7;;;23.48;55.40625
59987;BME280;46181;51.498;5.392;2023-05-11T11:01:34;101467.3;;;23.85;54.34766
59987;BME280;46181;51.498;5.392;2023-05-11T11:05:11;101462.8;;;24.13;52.34668
59987;BME280;46181;51.498;5.392;2023-05-11T11:09:58;101453.9;;;24.44;51.52148
59987;BME280;46181;51.498;5.392;2023-05-11T11:14:12;101452.8;;;24.83;50.31934
59987;BME280;46181;51.498;5.392;2023-05-11T11:18:41;101453.1;;;25.01;48.9873
59987;BME280;46181;51.498;5.392;2023-05-11T11:23:11;101454.4;;;25.03;48.65039
59987;BME280;46181;51.498;5.392;2023-05-11T11:27:58;101451.5;;;24.97;48.42285
59987;BME280;46181;51.498;5.392;2023-05-11T11:32:28;101446;;;24.75;48.28223
59987;BME280;46181;51.498;5.392;2023-05-11T11:41:11;101438;;;24.86;47.47852
59987;BME280;46181;51.498;5.392;2023-05-11T11:45:43;101439.8;;;24.97;46.73145
59987;BME280;46181;51.498;5.392;2023-05-11T11:50:18;101437.9;;;24.76;46.21875
59987;BME280;46181;51.498;5.392;2023-05-11T11:54:52;101436.4;;;24.41;47.0459
59987;BME280;46181;51.498;5.392;2023-05-11T11:59:11;101432.6;;;24.39;47.49805
59987;BME280;46181;51.498;5.392;2023-05-11T12:03:41;101436.2;;;24.61;47.07813
59987;BME280;46181;51.498;5.392;2023-05-11T12:08:13;101434.6;;;24.79;46.62988
59987;BME280;46181;51.498;5.392;2023-05-11T12:12:41;101440.4;;;24.95;45.87695
59987;BME280;46181;51.498;5.392;2023-05-11T12:17:18;101440;;;25.24;46.09375
59987;BME280;46181;51.498;5.392;2023-05-11T12:21:43;101436.4;;;25.75;44.60254
59987;BME280;46181;51.498;5.392;2023-05-11T12:26:14;101434.9;;;26;44.07617
59987;BME280;46181;51.498;5.392;2023-05-11T12:30:52;101434.8;;;26.31;43.19238
59987;BME280;46181;51.498;5.392;2023-05-11T12:35:12;101425.2;;;26.41;43.27246
59987;BME280;46181;51.498;5.392;2023-05-11T12:39:41;101423.1;;;26.19;42.00977
59987;BME280;46181;51.498;5.392;2023-05-11T12:44:11;101418.3;;;25.74;42.96191
59987;BME280;46181;51.498;5.392;2023-05-11T12:48:41;101424.3;;;25.8;42.89746
59987;BME280;46181;51.498;5.392;2023-05-11T12:53:23;101423.6;;;26.04;42.97949
59987;BME280;46181;51.498;5.392;2023-05-11T12:57:41;101415.8;;;26.1;42.15332
59987;BME280;46181;51.498;5.392;2023-05-11T13:02:21;101409.5;;;26.19;42.12695
59987;BME280;46181;51.498;5.392;2023-05-11T13:06:43;101405.3;;;26.31;41.8457
59987;BME280;46181;51.498;5.392;2023-05-11T13:11:22;101402.3;;;26.3;42.10254
59987;BME280;46181;51.498;5.392;2023-05-11T13:15:52;101398.3;;;26.57;41.59863
59987;BME280;46181;51.498;5.392;2023-05-11T13:20:22;101399.9;;;26.86;41.29785
59987;BME280;46181;51.498;5.392;2023-05-11T13:24:41;101384.8;;;27.15;40.65332
59987;BME280;46181;51.498;5.392;2023-05-11T13:29:11;101386.1;;;27.27;39.37207
59987;BME280;46181;51.498;5.392;2023-05-11T13:33:41;101387.7;;;27.36;39.03906
59987;BME280;46181;51.498;5.392;2023-05-11T13:38:11;101384;;;27.21;38.67285
59987;BME280;46181;51.498;5.392;2023-05-11T13:42:41;101391.5;;;26.98;39.38086
59987;BME280;46181;51.498;5.392;2023-05-11T13:47:11;101388;;;26.88;39.25586
59987;BME280;46181;51.498;5.392;2023-05-11T13:51:41;101376.5;;;26.57;39.10059
59987;BME280;46181;51.498;5.392;2023-05-11T13:56:11;101378.8;;;26.57;39.1123
59987;BME280;46181;51.498;5.392;2023-05-11T14:00:41;101372.8;;;26.46;38.99609
59987;BME280;46181;51.498;5.392;2023-05-11T14:05:11;101377.9;;;26.23;39
59987;BME280;46181;51.498;5.392;2023-05-11T14:09:41;101368.1;;;26.27;38.66406
59987;BME280;46181;51.498;5.392;2023-05-11T14:14:11;101371.5;;;26.31;38.90039
59987;BME280;46181;51.498;5.392;2023-05-11T14:18:41;101374.9;;;26.48;38.87988
59987;BME280;46181;51.498;5.392;2023-05-11T14:23:11;101365.5;;;26.44;39.18262
59987;BME280;46181;51.498;5.392;2023-05-11T14:27:41;101364.1;;;26.5;38.74121
59987;BME280;46181;51.498;5.392;2023-05-11T14:32:11;101361.9;;;26.37;38.94141
59987;BME280;46181;51.498;5.392;2023-05-11T14:36:41;101360.2;;;26.31;39.42969
59987;BME280;46181;51.498;5.392;2023-05-11T14:41:11;101363.8;;;26.03;38.93652
59987;BME280;46181;51.498;5.392;2023-05-11T14:45:41;101362.9;;;25.89;39.50977
59987;BME280;46181;51.498;5.392;2023-05-11T14:50:12;101364;;;25.75;39.13379
59987;BME280;46181;51.498;5.392;2023-05-11T14:54:42;101360.9;;;25.44;39.20117
59987;BME280;46181;51.498;5.392;2023-05-11T14:59:11;101357.4;;;25.04;39.54102
59987;BME280;46181;51.498;5.392;2023-05-11T15:03:41;101347.1;;;24.73;40.13184
59987;BME280;46181;51.498;5.392;2023-05-11T15:08:11;101347.6;;;24.43;41.21484
59987;BME280;46181;51.498;5.392;2023-05-11T15:12:44;101348.5;;;24.21;40.68066
59987;BME280;46181;51.498;5.392;2023-05-11T15:17:11;101360.6;;;23.92;42.04297
59987;BME280;46181;51.498;5.392;2023-05-11T15:21:41;101365.7;;;23.37;43.54004
59987;BME280;46181;51.498;5.392;2023-05-11T15:26:11;101368.6;;;23.03;44.90234
59987;BME280;46181;51.498;5.392;2023-05-11T15:30:41;101372.6;;;22.73;45.74316
59987;BME280;46181;51.498;5.392;2023-05-11T15:35:11;101374.9;;;22.51;47.35742
59987;BME280;46181;51.498;5.392;2023-05-11T15:39:41;101383;;;22.29;48.04199
59987;BME280;46181;51.498;5.392;2023-05-11T15:44:11;101383.5;;;22.03;48.97559
59987;BME280;46181;51.498;5.392;2023-05-11T15:48:41;101387.6;;;21.86;49.76855
59987;BME280;46181;51.498;5.392;2023-05-11T15:53:11;101393.9;;;21.81;50.4668
59987;BME280;46181;51.498;5.392;2023-05-11T15:57:41;101389.6;;;21.74;50.70313
59987;BME280;46181;51.498;5.392;2023-05-11T16:02:11;101392.4;;;21.69;51.06836
59987;BME280;46181;51.498;5.392;2023-05-11T16:06:41;101397.8;;;21.72;51.30273
59987;BME280;46181;51.498;5.392;2023-05-11T16:11:11;101399.5;;;21.65;51.0166
59987;BME280;46181;51.498;5.392;2023-05-11T16:15:41;101394.4;;;21.55;51.15527
59987;BME280;46181;51.498;5.392;2023-05-11T16:20:12;101396.6;;;21.46;51.35352
59987;BME280;46181;51.498;5.392;2023-05-11T16:24:41;101395.4;;;21.44;51.48926
59987;BME280;46181;51.498;5.392;2023-05-11T16:29:11;101395.1;;;21.4;51.26563
59987;BME280;46181;51.498;5.392;2023-05-11T16:33:41;101395.6;;;21.39;50.88281
59987;BME280;46181;51.498;5.392;2023-05-11T16:38:18;101395.5;;;21.28;50.92871
59987;BME280;46181;51.498;5.392;2023-05-11T16:42:41;101401.8;;;21.23;50.73828
59987;BME280;46181;51.498;5.392;2023-05-11T16:47:11;101396.2;;;21.13;50.74902
59987;BME280;46181;51.498;5.392;2023-05-11T16:51:43;101394.4;;;21.05;50.93652
59987;BME280;46181;51.498;5.392;2023-05-11T16:56:11;101401.1;;;21.09;50.86035
59987;BME280;46181;51.498;5.392;2023-05-11T17:00:41;101395.8;;;21.02;50.49414
59987;BME280;46181;51.498;5.392;2023-05-11T17:05:12;101393.5;;;20.96;50.51074
59987;BME280;46181;51.498;5.392;2023-05-11T17:09:41;101391.7;;;20.81;50.5752
59987;BME280;46181;51.498;5.392;2023-05-11T17:14:11;101398.8;;;20.71;50.65625
59987;BME280;46181;51.498;5.392;2023-05-11T17:18:41;101398.7;;;20.57;51.06641
59987;BME280;46181;51.498;5.392;2023-05-11T17:23:11;101398.6;;;20.53;51.54688
59987;BME280;46181;51.498;5.392;2023-05-11T17:27:42;101403.6;;;20.5;51.71582
59987;BME280;46181;51.498;5.392;2023-05-11T17:32:11;101403.5;;;20.53;52.00781
59987;BME280;46181;51.498;5.392;2023-05-11T17:36:41;101410.7;;;20.38;51.79492
59987;BME280;46181;51.498;5.392;2023-05-11T17:41:12;101407.6;;;20.2;52.62695
59987;BME280;46181;51.498;5.392;2023-05-11T17:45:41;101405;;;20.11;52.89258
59987;BME280;46181;51.498;5.392;2023-05-11T17:50:11;101408;;;20.07;53.42969
59987;BME280;46181;51.498;5.392;2023-05-11T17:54:41;101411.7;;;20.1;53.72168
59987;BME280;46181;51.498;5.392;2023-05-11T17:59:11;101408.7;;;20.05;54.11816
59987;BME280;46181;51.498;5.392;2023-05-11T18:03:41;101408.5;;;20.03;54.62207
59987;BME280;46181;51.498;5.392;2023-05-11T18:08:11;101411.8;;;20.06;54.74121
59987;BME280;46181;51.498;5.392;2023-05-11T18:12:41;101414;;;20.05;54.80859
59987;BME280;46181;51.498;5.392;2023-05-11T18:17:11;101411.6;;;20;55.125
59987;BME280;46181;51.498;5.392;2023-05-11T18:21:43;101422.3;;;20.08;55.23828
59987;BME280;46181;51.498;5.392;2023-05-11T18:26:11;101421.6;;;20.06;55.36328
59987;BME280;46181;51.498;5.392;2023-05-11T18:30:42;101422.4;;;20.03;55.6582
59987;BME280;46181;51.498;5.392;2023-05-11T18:35:11;101424;;;20.06;55.8125
59987;BME280;46181;51.498;5.392;2023-05-11T18:39:41;101427.4;;;20.09;55.875
59987;BME280;46181;51.498;5.392;2023-05-11T18:44:11;101425.2;;;20.1;56.18555
59987;BME280;46181;51.498;5.392;2023-05-11T18:48:41;101425.5;;;20.12;56.25684
59987;BME280;46181;51.498;5.392;2023-05-11T18:53:11;101429.5;;;20.09;56.51953
59987;BME280;46181;51.498;5.392;2023-05-11T18:57:41;101432.3;;;20.07;56.64258
59987;BME280;46181;51.498;5.392;2023-05-11T19:02:11;101431;;;19.98;56.83691
59987;BME280;46181;51.498;5.392;2023-05-11T19:06:41;101434;;;19.92;56.96875
59987;BME280;46181;51.498;5.392;2023-05-11T19:11:16;101443.7;;;19.83;57.31348
59987;BME280;46181;51.498;5.392;2023-05-11T19:15:41;101444.2;;;19.82;57.2998
59987;BME280;46181;51.498;5.392;2023-05-11T19:20:11;101450.7;;;19.77;57.44336
59987;BME280;46181;51.498;5.392;2023-05-11T19:24:41;101451.6;;;19.72;57.71191
59987;BME280;46181;51.498;5.392;2023-05-11T19:29:11;101459.2;;;19.71;57.90625
59987;BME280;46181;51.498;5.392;2023-05-11T19:33:41;101466.5;;;19.69;58.04199
59987;BME280;46181;51.498;5.392;2023-05-11T19:38:11;101469.3;;;19.68;58.12109
59987;BME280;46181;51.498;5.392;2023-05-11T19:42:41;101472.2;;;19.67;58.21094
59987;BME280;46181;51.498;5.392;2023-05-11T19:47:11;101478.5;;;19.63;58.24219
59987;BME280;46181;51.498;5.392;2023-05-11T19:51:41;101478.4;;;19.61;58.40039
59987;BME280;46181;51.498;5.392;2023-05-11T19:56:11;101480.4;;;19.57;58.69434
59987;BME280;46181;51.498;5.392;2023-05-11T20:00:42;101480.6;;;19.48;58.80762
59987;BME280;46181;51.498;5.392;2023-05-11T20:05:11;101484.3;;;19.46;59.08105
59987;BME280;46181;51.498;5.392;2023-05-11T20:09:41;101494.7;;;19.5;59.20215
59987;BME280;46181;51.498;5.392;2023-05-11T20:14:11;101496.9;;;19.48;59.19824
59987;BME280;46181;51.498;5.392;2023-05-11T20:18:41;101494;;;19.45;59.34277
59987;BME280;46181;51.498;5.392;2023-05-11T20:23:11;101498.1;;;19.4;59.45117
59987;BME280;46181;51.498;5.392;2023-05-11T20:27:41;101505.2;;;19.3;59.62207
59987;BME280;46181;51.498;5.392;2023-05-11T20:32:11;101505.8;;;19.2;59.88379
59987;BME280;46181;51.498;5.392;2023-05-11T20:36:44;101503.7;;;19.1;60.20313
59987;BME280;46181;51.498;5.392;2023-05-11T20:41:11;101505.9;;;19.08;60.44238
59987;BME280;46181;51.498;5.392;2023-05-11T20:45:41;101502.8;;;19.09;60.41016
59987;BME280;46181;51.498;5.392;2023-05-11T20:50:12;101502.8;;;19.02;60.51367
59987;BME280;46181;51.498;5.392;2023-05-11T20:54:41;101499.2;;;18.97;60.73535
59987;BME280;46181;51.498;5.392;2023-05-11T20:59:11;101503.6;;;18.96;60.81543
59987;BME280;46181;51.498;5.392;2023-05-11T21:03:41;101503.7;;;18.92;60.98145
59987;BME280;46181;51.498;5.392;2023-05-11T21:08:11;101502.2;;;18.87;61.27246
59987;BME280;46181;51.498;5.392;2023-05-11T21:12:41;101504.3;;;18.81;61.45996
59987;BME280;46181;51.498;5.392;2023-05-11T21:17:11;101509.7;;;18.72;61.7793
59987;BME280;46181;51.498;5.392;2023-05-11T21:21:44;101506;;;18.68;62.09375
59987;BME280;46181;51.498;5.392;2023-05-11T21:26:11;101511.3;;;18.61;62.49609
59987;BME280;46181;51.498;5.392;2023-05-11T21:30:41;101511.6;;;18.67;62.6543
59987;BME280;46181;51.498;5.392;2023-05-11T21:35:12;101511.7;;;18.68;62.66699
59987;BME280;46181;51.498;5.392;2023-05-11T21:39:41;101517.3;;;18.66;62.60645
59987;BME280;46181;51.498;5.392;2023-05-11T21:44:11;101519;;;18.59;62.74609
59987;BME280;46181;51.498;5.392;2023-05-11T21:48:41;101513.7;;;18.54;62.96777
59987;BME280;46181;51.498;5.392;2023-05-11T21:53:11;101513.6;;;18.48;63.05078
59987;BME280;46181;51.498;5.392;2023-05-11T21:57:41;101517.6;;;18.45;63.43652
59987;BME280;46181;51.498;5.392;2023-05-11T22:02:11;101519.5;;;18.42;63.61426
59987;BME280;46181;51.498;5.392;2023-05-11T22:06:43;101523;;;18.4;63.83008
59987;BME280;46181;51.498;5.392;2023-05-11T22:11:11;101521;;;18.44;63.8916
59987;BME280;46181;51.498;5.392;2023-05-11T22:15:41;101516.2;;;18.4;64
59987;BME280;46181;51.498;5.392;2023-05-11T22:20:12;101517.4;;;18.39;64.26074
59987;BME280;46181;51.498;5.392;2023-05-11T22:24:41;101516;;;18.38;64.38672
59987;BME280;46181;51.498;5.392;2023-05-11T22:29:11;101517.5;;;18.34;64.41504
59987;BME280;46181;51.498;5.392;2023-05-11T22:33:41;101516.2;;;18.32;64.74512
59987;BME280;46181;51.498;5.392;2023-05-11T23:50:12;101500;;;17.79;66.70996
59987;BME280;46181;51.498;5.392;2023-05-11T23:54:41;101492.1;;;17.77;66.69629
59987;BME280;46181;51.498;5.392;2023-05-11T23:59:11;101489.8;;;17.73;66.45117
